Time;durP1;ratioP1;P1;durP2;ratioP2;P2;SDS_P1;SDS_P2;PMS_P1;PMS_P2;Temp;Humidity;BMP_temperature;BMP_pressure;BME280_temperature;BME280_humidity;BME280_pressure;Samples;Min_cycle;Max_cycle;Signal;HPM_P1;HPM_P2
2022/08/09 00:00:08;;;;;;;2.35;1.63;;;;;;;21.90;47.78;102590.63;5062690;28;20061;-66
2022/08/09 00:02:39;;;;;;;3.28;1.50;;;;;;;21.88;47.84;102588.16;5062086;28;20045;-67
2022/08/09 00:05:16;;;;;;;3.53;1.63;;;;;;;21.87;47.96;102582.94;5059989;28;20515;-67
2022/08/09 00:08:05;;;;;;;2.90;1.27;;;;;;;21.86;47.77;102587.56;5055920;28;20073;-66
2022/08/09 00:10:38;;;;;;;2.75;1.77;;;;;;;21.83;47.75;102585.34;5065158;28;20045;-67
2022/08/09 00:13:06;;;;;;;5.05;1.40;;;;;;;21.82;47.85;102585.59;5063913;28;20057;-66
2022/08/09 00:15:44;;;;;;;3.42;1.70;;;;;;;21.80;48.21;102583.13;5066262;28;20048;-67
2022/08/09 00:18:29;;;;;;;3.88;1.65;;;;;;;21.79;48.08;102577.91;5052896;28;20051;-67
2022/08/09 00:20:58;;;;;;;3.55;1.58;;;;;;;21.76;48.37;102582.81;5052657;28;20072;-68
2022/08/09 00:23:25;;;;;;;2.90;1.45;;;;;;;21.71;48.40;102573.69;5051158;28;20060;-68
2022/08/09 00:26:15;;;;;;;8.88;1.60;;;;;;;21.73;48.21;102577.00;5052048;28;20045;-67
2022/08/09 00:28:44;;;;;;;3.28;1.40;;;;;;;21.71;48.35;102582.75;5053958;28;20045;-67
2022/08/09 00:31:20;;;;;;;3.63;1.77;;;;;;;21.67;48.66;102581.59;5051720;28;20048;-66
2022/08/09 00:34:08;;;;;;;1.92;1.50;;;;;;;21.65;48.52;102582.94;5059055;28;20059;-67
2022/08/09 00:36:37;;;;;;;2.85;1.55;;;;;;;21.64;48.87;102592.22;5051706;28;20045;-67
2022/08/09 00:39:08;;;;;;;2.75;1.38;;;;;;;21.63;48.55;102583.19;5065034;28;20053;-67
2022/08/09 00:41:57;;;;;;;4.75;1.73;;;;;;;21.62;48.75;102581.53;5065306;28;20059;-67
2022/08/09 00:44:45;;;;;;;2.95;1.42;;;;;;;21.61;48.74;102584.50;5058276;28;20294;-67
2022/08/09 00:47:13;;;;;;;2.53;1.80;;;;;;;21.59;48.78;102587.50;5058927;28;20080;-67
2022/08/09 00:49:42;;;;;;;4.68;1.58;;;;;;;21.57;48.85;102586.94;5064204;28;20095;-67
2022/08/09 00:52:23;;;;;;;3.67;1.50;;;;;;;21.56;48.79;102593.50;5056954;28;20059;-67
2022/08/09 00:54:58;;;;;;;3.27;1.70;;;;;;;21.55;49.09;102588.25;5063731;28;20076;-67
2022/08/09 00:57:30;;;;;;;3.97;1.55;;;;;;;21.54;48.95;102595.66;5062213;28;20048;-67
2022/08/09 01:00:06;;;;;;;2.30;1.40;;;;;;;21.52;49.45;102595.06;5053062;28;20056;-66
2022/08/09 01:02:51;;;;;;;3.70;1.10;;;;;;;21.50;49.12;102591.75;5063213;28;20108;-67
2022/08/09 01:05:28;;;;;;;3.97;1.60;;;;;;;21.49;49.30;102592.00;5055845;28;20367;-67
2022/08/09 01:08:24;;;;;;;3.28;1.60;;;;;;;21.47;49.31;102585.97;5065007;28;20059;-66
2022/08/09 01:11:03;;;;;;;2.35;1.67;;;;;;;21.45;49.32;102583.47;5062201;28;20057;-67
2022/08/09 01:13:45;;;;;;;2.95;1.70;;;;;;;21.43;49.20;102580.16;5058199;28;20067;-67
2022/08/09 01:16:30;;;;;;;3.35;1.60;;;;;;;21.42;49.14;102579.34;5059053;28;20109;-68
2022/08/09 01:19:02;;;;;;;3.13;1.48;;;;;;;21.40;49.08;102580.69;5064823;28;20068;-68
2022/08/09 01:21:43;;;;;;;2.17;1.40;;;;;;;21.40;49.04;102584.25;5063120;28;20049;-68
2022/08/09 01:24:35;;;;;;;3.55;1.70;;;;;;;21.40;49.04;102586.97;5063360;28;20497;-67
2022/08/09 01:27:09;;;;;;;1.88;1.23;;;;;;;21.40;48.92;102597.91;5059890;28;20051;-67
2022/08/09 01:29:42;;;;;;;5.75;1.80;;;;;;;21.37;49.06;102586.66;5064260;28;20057;-67
2022/08/09 01:32:26;;;;;;;5.18;1.63;;;;;;;21.37;49.05;102587.47;5056790;28;20056;-67
2022/08/09 01:35:03;;;;;;;3.92;1.60;;;;;;;21.37;49.11;102578.44;5062201;28;20045;-67
2022/08/09 01:37:53;;;;;;;2.67;1.40;;;;;;;21.35;49.08;102578.69;5052511;28;20054;-67
2022/08/09 01:40:43;;;;;;;4.00;1.75;;;;;;;21.33;49.13;102572.66;5050965;28;20531;-68
2022/08/09 01:43:22;;;;;;;4.03;1.20;;;;;;;21.33;48.93;102580.84;5057818;28;20084;-67
2022/08/09 01:45:53;;;;;;;3.13;1.60;;;;;;;21.32;49.19;102576.47;5060496;28;20084;-67
2022/08/09 01:48:27;;;;;;;4.05;1.75;;;;;;;21.30;49.03;102572.31;5063844;28;20052;-67
2022/08/09 01:50:59;;;;;;;5.47;2.05;;;;;;;21.30;49.11;102580.53;5045117;28;20064;-67
2022/08/09 01:53:31;;;;;;;3.33;1.60;;;;;;;21.27;48.95;102573.66;5062015;28;20052;-67
2022/08/09 01:56:09;;;;;;;4.10;1.63;;;;;;;21.27;49.08;102575.56;5056844;28;20049;-67
2022/08/09 01:58:41;;;;;;;2.97;1.73;;;;;;;21.26;49.00;102576.63;5046684;28;20391;-67
2022/08/09 02:01:10;;;;;;;3.72;1.92;;;;;;;21.24;49.01;102581.53;5055940;28;20095;-66
2022/08/09 02:03:47;;;;;;;3.75;1.67;;;;;;;21.22;49.36;102580.97;5062940;28;20513;-67
2022/08/09 02:06:16;;;;;;;3.58;1.90;;;;;;;21.21;49.61;102576.53;5052097;28;20037;-67
2022/08/09 02:08:45;;;;;;;2.90;1.42;;;;;;;21.20;49.60;102586.66;5063142;28;20075;-67
2022/08/09 02:11:28;;;;;;;2.03;1.42;;;;;;;21.17;49.43;102589.06;5062797;28;20064;-66
2022/08/09 02:14:14;;;;;;;3.22;1.55;;;;;;;21.15;49.75;102585.75;5062490;28;20045;-67
2022/08/09 02:16:54;;;;;;;2.58;1.60;;;;;;;21.12;49.82;102593.38;5066829;28;20551;-67
2022/08/09 02:19:42;;;;;;;4.13;2.00;;;;;;;21.03;49.83;102583.09;5054589;28;20554;-67
2022/08/09 02:22:16;;;;;;;4.57;1.70;;;;;;;21.09;50.39;102588.41;5067339;28;20049;-67
2022/08/09 02:24:58;;;;;;;3.47;1.50;;;;;;;21.07;49.96;102590.56;5066148;28;20052;-66
2022/08/09 02:27:28;;;;;;;4.57;1.85;;;;;;;21.05;50.03;102589.97;5063303;28;20068;-67
2022/08/09 02:30:18;;;;;;;3.47;1.88;;;;;;;21.03;49.85;102592.13;5064730;28;20084;-67
2022/08/09 02:32:47;;;;;;;4.70;1.88;;;;;;;21.00;50.18;102586.34;5065999;28;20084;-67
2022/08/09 02:35:21;;;;;;;3.45;1.60;;;;;;;21.00;50.08;102584.44;5067639;28;20499;-66
2022/08/09 02:38:10;;;;;;;3.88;1.75;;;;;;;20.99;50.03;102579.22;5055500;28;20259;-66
2022/08/09 02:40:59;;;;;;;2.60;1.50;;;;;;;20.95;49.69;102583.50;5057707;28;20072;-67
2022/08/09 02:43:31;;;;;;;4.32;1.80;;;;;;;20.95;50.16;102580.78;5064828;28;20049;-68
2022/08/09 02:46:22;;;;;;;2.75;1.80;;;;;;;20.94;50.14;102590.06;5061445;28;20045;-67
2022/08/09 02:48:51;;;;;;;3.70;1.73;;;;;;;20.92;50.24;102589.47;5065799;28;20470;-67
2022/08/09 02:51:22;;;;;;;3.40;1.42;;;;;;;20.91;50.29;102582.34;5059468;28;20049;-67
2022/08/09 02:53:57;;;;;;;4.00;1.83;;;;;;;20.89;50.30;102579.88;5067585;28;20088;-67
2022/08/09 02:56:30;;;;;;;5.43;2.08;;;;;;;20.88;50.40;102585.59;5065595;28;20153;-66
2022/08/09 02:59:01;;;;;;;3.70;1.65;;;;;;;20.87;50.35;102581.19;5058240;28;20048;-67
2022/08/09 03:01:31;;;;;;;2.88;1.63;;;;;;;20.85;50.30;102580.63;5065919;28;20057;-68
2022/08/09 03:04:21;;;;;;;4.80;1.98;;;;;;;20.84;50.28;102578.97;5061684;28;20120;-68
2022/08/09 03:06:57;;;;;;;6.30;1.80;;;;;;;20.83;50.25;102577.31;5053953;28;20041;-68
2022/08/09 03:09:40;;;;;;;3.25;1.73;;;;;;;20.82;50.14;102572.91;5066994;28;20049;-68
2022/08/09 03:12:11;;;;;;;3.10;1.77;;;;;;;20.81;50.30;102583.00;5063289;28;20051;-68
2022/08/09 03:14:41;;;;;;;3.13;1.90;;;;;;;20.79;50.18;102580.56;5065521;28;20368;-68
2022/08/09 03:17:12;;;;;;;4.57;1.83;;;;;;;20.78;50.13;102576.19;5060004;28;20052;-67
2022/08/09 03:19:48;;;;;;;6.05;1.98;;;;;;;20.77;50.25;102573.69;5066864;28;20048;-68
2022/08/09 03:22:32;;;;;;;4.38;2.00;;;;;;;20.75;49.99;102573.94;5063528;28;20073;-68
2022/08/09 03:25:10;;;;;;;4.32;2.08;;;;;;;20.74;50.36;102574.19;5054285;28;20045;-67
2022/08/09 03:27:59;;;;;;;3.97;1.88;;;;;;;20.72;50.60;102571.69;5059971;28;20045;-68
2022/08/09 03:30:28;;;;;;;3.72;1.83;;;;;;;20.71;50.07;102575.50;5066195;28;20068;-68
2022/08/09 03:33:07;;;;;;;2.72;1.80;;;;;;;20.70;50.40;102587.50;5062763;28;20072;-67
2022/08/09 03:35:46;;;;;;;5.57;2.25;;;;;;;20.69;50.37;102579.56;5065121;28;20045;-68
2022/08/09 03:38:35;;;;;;;3.78;2.08;;;;;;;20.64;50.18;102574.84;5054587;28;20045;-68
2022/08/09 03:41:08;;;;;;;5.55;1.83;;;;;;;20.63;50.46;102581.38;5062347;28;20084;-68
2022/08/09 03:43:41;;;;;;;4.22;2.00;;;;;;;20.63;50.70;102583.28;5055718;28;20045;-68
2022/08/09 03:46:18;;;;;;;3.22;2.00;;;;;;;20.61;50.53;102579.97;5060484;28;20109;-67
2022/08/09 03:49:01;;;;;;;3.33;1.98;;;;;;;20.61;50.49;102579.97;5065806;28;20053;-67
2022/08/09 03:51:37;;;;;;;4.20;2.40;;;;;;;20.59;50.95;102580.22;5057623;28;20402;-68
2022/08/09 03:54:27;;;;;;;6.90;2.08;;;;;;;20.55;50.53;102576.31;5047489;28;20112;-67
2022/08/09 03:57:00;;;;;;;3.70;1.92;;;;;;;20.57;50.90;102587.00;5058780;28;20049;-68
2022/08/09 03:59:28;;;;;;;4.32;2.35;;;;;;;20.55;50.97;102583.69;5046433;28;20049;-67
2022/08/09 04:02:18;;;;;;;3.80;2.20;;;;;;;20.54;51.09;102584.75;5055859;28;20041;-68
2022/08/09 04:04:56;;;;;;;5.32;1.92;;;;;;;20.53;50.98;102588.56;5064019;28;20045;-68
2022/08/09 04:07:25;;;;;;;3.83;2.05;;;;;;;20.52;51.00;102592.38;5065995;28;20041;-68
2022/08/09 04:10:13;;;;;;;3.40;2.05;;;;;;;20.48;50.95;102577.56;5062686;28;20052;-68
2022/08/09 04:12:46;;;;;;;3.88;1.90;;;;;;;20.49;51.03;102587.41;5063065;28;20049;-68
2022/08/09 04:15:19;;;;;;;4.60;1.88;;;;;;;20.47;51.11;102590.38;5056889;28;20049;-68
2022/08/09 04:18:07;;;;;;;2.40;1.80;;;;;;;20.46;51.20;102586.00;5061541;28;20188;-68
2022/08/09 04:20:36;;;;;;;6.38;1.88;;;;;;;20.36;51.22;102581.16;5050633;28;20487;-68
2022/08/09 04:23:05;;;;;;;3.30;1.83;;;;;;;20.39;51.61;102585.31;5064582;28;20049;-67
2022/08/09 04:25:43;;;;;;;4.10;2.42;;;;;;;20.41;51.30;102597.66;5063285;28;20060;-68
2022/08/09 04:28:10;;;;;;;3.95;2.30;;;;;;;20.40;51.77;102592.44;5065496;28;20052;-67
2022/08/09 04:30:39;;;;;;;4.47;2.10;;;;;;;20.40;51.31;102595.16;5055346;28;20053;-68
2022/08/09 04:33:11;;;;;;;6.97;2.35;;;;;;;20.37;51.48;102598.34;5064025;28;20068;-67
2022/08/09 04:35:42;;;;;;;5.82;2.00;;;;;;;20.36;51.44;102604.88;5062741;28;20049;-68
2022/08/09 04:38:10;;;;;;;4.85;1.88;;;;;;;20.35;51.26;102605.97;5065181;28;20091;-68
2022/08/09 04:40:50;;;;;;;5.07;2.47;;;;;;;20.33;51.55;102608.94;5064183;28;20045;-67
2022/08/09 04:43:24;;;;;;;3.55;2.22;;;;;;;20.33;51.45;102608.09;5062657;28;20552;-68
2022/08/09 04:45:52;;;;;;;2.80;2.10;;;;;;;20.31;50.98;102608.34;5060154;28;20080;-68
2022/08/09 04:48:21;;;;;;;3.33;2.40;;;;;;;20.29;51.54;102610.50;5053412;28;20052;-68
2022/08/09 04:51:00;;;;;;;3.15;2.25;;;;;;;20.28;51.92;102611.56;5061452;28;20044;-68
2022/08/09 04:53:28;;;;;;;5.50;2.30;;;;;;;20.26;51.97;102608.25;5053175;28;20068;-68
2022/08/09 04:55:58;;;;;;;3.47;2.40;;;;;;;20.24;51.92;102606.84;5063950;28;20168;-68
2022/08/09 04:58:26;;;;;;;4.88;2.25;;;;;;;20.24;51.76;102609.56;5057103;28;20466;-66
2022/08/09 05:00:58;;;;;;;6.22;2.50;;;;;;;20.23;51.70;102610.66;5057612;28;20071;-64
2022/08/09 05:03:26;;;;;;;6.43;2.33;;;;;;;20.22;51.95;102619.91;5055970;28;20053;-63
2022/08/09 05:06:12;;;;;;;6.38;2.47;;;;;;;20.21;51.96;102618.25;5063175;28;20052;-66
2022/08/09 05:08:54;;;;;;;3.90;1.92;;;;;;;20.19;51.61;102626.69;5062360;28;20045;-65
2022/08/09 05:11:28;;;;;;;7.28;2.60;;;;;;;20.18;52.16;102624.19;5056421;28;20052;-63
2022/08/09 05:13:57;;;;;;;6.53;2.45;;;;;;;20.14;52.81;102618.41;5064230;28;20053;-62
2022/08/09 05:16:25;;;;;;;8.15;2.90;;;;;;;20.14;52.25;102624.69;5058612;28;20049;-63
2022/08/09 05:18:58;;;;;;;4.15;2.63;;;;;;;20.13;52.77;102624.94;4708223;28;9999905;-63
2022/08/09 05:21:30;;;;;;;6.38;3.22;;;;;;;20.13;52.61;102628.47;5063824;28;20501;-63
2022/08/09 05:24:18;;;;;;;6.32;2.38;;;;;;;20.12;52.34;102629.56;5055802;28;20059;-62
2022/08/09 05:26:46;;;;;;;3.85;2.33;;;;;;;20.12;52.54;102629.56;5057801;28;20053;-62
2022/08/09 05:29:18;;;;;;;5.47;2.47;;;;;;;20.09;52.04;102631.94;5060984;28;20041;-62
2022/08/09 05:31:50;;;;;;;10.95;3.30;;;;;;;20.09;52.55;102623.75;5058308;28;20059;-63
2022/08/09 05:34:25;;;;;;;4.60;2.50;;;;;;;20.08;52.17;102625.66;5069961;28;20060;-62
2022/08/09 05:37:02;;;;;;;8.43;3.28;;;;;;;20.08;52.81;102620.19;5055797;28;20087;-64
2022/08/09 05:39:34;;;;;;;4.85;3.03;;;;;;;20.10;52.72;102623.50;5062075;28;20044;-63
2022/08/09 05:42:10;;;;;;;5.03;2.38;;;;;;;20.12;52.48;102624.09;5060401;28;20570;-66
2022/08/09 05:44:55;;;;;;;5.93;2.58;;;;;;;20.14;52.31;102623.84;5059075;28;20114;-68
2022/08/09 05:47:24;;;;;;;7.63;3.53;;;;;;;20.15;52.53;102618.16;5060316;28;20090;-63
2022/08/09 05:49:55;;;;;;;6.82;2.70;;;;;;;20.18;52.37;102626.94;5065172;28;20414;-62
2022/08/09 05:52:44;;;;;;;6.55;2.40;;;;;;;20.19;52.01;102626.69;5056353;28;20055;-63
2022/08/09 05:55:21;;;;;;;4.53;2.70;;;;;;;20.20;51.89;102630.25;5059525;28;20075;-64
2022/08/09 05:57:51;;;;;;;4.82;2.58;;;;;;;20.20;52.14;102638.44;5064409;28;20127;-65
2022/08/09 06:00:26;;;;;;;5.38;2.28;;;;;;;20.17;52.41;102650.66;5063298;28;20065;-64
2022/08/09 06:02:56;;;;;;;7.78;2.85;;;;;;;20.15;52.56;102647.34;5063412;28;20071;-64
2022/08/09 06:05:25;;;;;;;6.50;2.60;;;;;;;20.14;52.76;102648.41;5063657;28;20040;-64
2022/08/09 06:08:14;;;;;;;10.32;3.22;;;;;;;20.12;52.88;102640.47;5064355;28;20060;-65
2022/08/09 06:10:51;;;;;;;4.43;2.85;;;;;;;20.12;52.85;102642.38;5058969;28;20080;-65
2022/08/09 06:13:19;;;;;;;4.57;2.45;;;;;;;20.11;53.00;102648.91;5048928;28;20057;-65
2022/08/09 06:15:48;;;;;;;6.90;2.42;;;;;;;20.08;52.79;102652.94;5047702;28;20500;-65
2022/08/09 06:18:19;;;;;;;6.65;3.22;;;;;;;20.08;53.15;102650.22;5059994;28;20108;-65
2022/08/09 06:20:51;;;;;;;5.63;2.97;;;;;;;20.06;52.99;102652.34;5062724;28;20053;-65
2022/08/09 06:23:28;;;;;;;6.20;2.80;;;;;;;20.05;53.20;102658.06;5053722;28;20049;-64
2022/08/09 06:26:16;;;;;;;6.50;2.95;;;;;;;20.02;53.34;102650.34;5053180;28;20049;-64
2022/08/09 06:28:49;;;;;;;8.52;3.95;;;;;;;20.01;53.87;102654.16;5063000;28;20048;-70
2022/08/09 06:31:27;;;;;;;7.20;3.15;;;;;;;20.01;53.63;102663.16;5063007;28;20045;-67
2022/08/09 06:34:06;;;;;;;5.65;2.40;;;;;;;20.02;53.97;102666.72;5056814;28;20045;-67
2022/08/09 06:36:34;;;;;;;4.65;2.55;;;;;;;20.03;54.04;102666.50;5056991;28;20045;-66
2022/08/09 06:39:03;;;;;;;6.20;3.00;;;;;;;19.99;53.68;102662.59;5053357;28;20049;-66
2022/08/09 06:41:38;;;;;;;5.28;2.67;;;;;;;20.00;53.74;102663.41;5054612;28;20118;-66
2022/08/09 06:44:26;;;;;;;6.65;3.33;;;;;;;20.01;53.55;102665.91;5060584;28;20044;-66
2022/08/09 06:46:53;;;;;;;3.67;2.70;;;;;;;20.01;53.42;102665.91;5060394;28;20169;-67
2022/08/09 06:49:22;;;;;;;4.35;2.42;;;;;;;20.01;53.81;102665.91;5058708;28;20050;-68
2022/08/09 06:52:10;;;;;;;6.50;2.88;;;;;;;20.03;53.56;102665.66;5056077;28;20223;-67
2022/08/09 06:54:40;;;;;;;5.35;2.90;;;;;;;20.04;53.81;102664.59;5065502;28;20383;-67
2022/08/09 06:57:08;;;;;;;4.47;2.85;;;;;;;20.04;53.61;102673.59;5064712;28;20045;-67
2022/08/09 06:59:38;;;;;;;3.95;1.98;;;;;;;20.04;53.68;102678.25;5065172;28;20051;-68
2022/08/09 07:02:25;;;;;;;5.00;2.90;;;;;;;20.04;53.77;102672.78;5064988;28;20060;-67
2022/08/09 07:04:58;;;;;;;7.03;2.45;;;;;;;20.06;53.89;102676.09;5067709;28;20141;-67
2022/08/09 07:07:26;;;;;;;4.63;2.10;;;;;;;20.07;53.47;102675.84;5068385;28;20045;-67
2022/08/09 07:10:15;;;;;;;5.93;2.80;;;;;;;20.08;53.52;102680.25;5066367;28;20049;-67
2022/08/09 07:12:58;;;;;;;4.10;2.47;;;;;;;20.09;53.73;102676.44;5063979;28;20057;-67
2022/08/09 07:15:26;;;;;;;4.82;2.08;;;;;;;20.09;53.56;102678.34;5070107;28;20068;-67
2022/08/09 07:18:14;;;;;;;4.07;2.50;;;;;;;20.10;53.47;102674.53;5073128;28;20058;-67
2022/08/09 07:20:42;;;;;;;9.38;2.70;;;;;;;20.11;53.63;102678.94;5064844;28;20053;-67
2022/08/09 07:23:14;;;;;;;4.05;2.20;;;;;;;20.11;53.72;102673.47;5069012;28;20048;-67
2022/08/09 07:25:48;;;;;;;8.35;2.38;;;;;;;20.13;53.71;102668.59;5071874;28;20070;-67
2022/08/09 07:28:28;;;;;;;6.63;2.70;;;;;;;20.15;53.59;102669.19;5065834;28;20040;-67
2022/08/09 07:30:56;;;;;;;3.47;2.08;;;;;;;20.13;54.01;102672.16;5068554;28;20044;-67
2022/08/09 07:33:24;;;;;;;4.93;2.55;;;;;;;20.17;53.84;102680.69;5069042;28;20144;-67
2022/08/09 07:35:57;;;;;;;7.00;3.17;;;;;;;20.18;53.70;102681.53;5068938;28;20052;-67
2022/08/09 07:38:25;;;;;;;4.93;2.28;;;;;;;20.20;53.79;102693.03;5071347;28;20130;-67
2022/08/09 07:40:59;;;;;;;4.35;2.55;;;;;;;20.19;53.69;102692.22;5074362;28;20079;-67
2022/08/09 07:43:40;;;;;;;5.38;3.40;;;;;;;20.20;54.06;102688.41;5072082;28;20048;-67
2022/08/09 07:46:22;;;;;;;8.65;2.55;;;;;;;20.20;54.09;102687.56;5066128;28;20056;-66
2022/08/09 07:48:54;;;;;;;4.70;2.42;;;;;;;20.21;54.27;102686.50;5062580;28;20049;-67
2022/08/09 07:51:27;;;;;;;4.35;2.88;;;;;;;20.22;54.25;102686.25;5075391;28;20116;-67
2022/08/09 07:54:15;;;;;;;4.88;2.17;;;;;;;20.23;54.14;102682.47;5067528;28;20045;-67
2022/08/09 07:56:58;;;;;;;4.97;2.70;;;;;;;20.24;54.13;102675.09;5063856;28;20061;-67
2022/08/09 07:59:27;;;;;;;7.38;2.42;;;;;;;20.24;54.32;102673.19;5066714;28;20044;-67
2022/08/09 08:02:15;;;;;;;3.15;2.40;;;;;;;20.27;54.42;102685.53;5060269;28;20049;-67
2022/08/09 08:04:46;;;;;;;5.20;2.50;;;;;;;20.27;54.12;102680.91;5066919;28;20044;-67
2022/08/09 08:07:15;;;;;;;6.53;2.30;;;;;;;20.29;53.98;102683.41;5064596;28;20472;-67
2022/08/09 08:10:05;;;;;;;6.20;2.65;;;;;;;20.30;54.03;102701.44;5068843;28;20057;-67
2022/08/09 08:12:41;;;;;;;3.85;2.83;;;;;;;20.31;54.06;102698.47;5068870;28;20077;-67
2022/08/09 08:15:12;;;;;;;4.88;2.08;;;;;;;20.32;54.14;102696.56;5063266;28;20080;-67
2022/08/09 08:17:41;;;;;;;7.28;2.75;;;;;;;20.32;54.29;102686.47;5063397;28;20139;-67
2022/08/09 08:20:26;;;;;;;4.85;2.60;;;;;;;20.35;54.30;102701.53;5071990;28;20075;-67
2022/08/09 08:22:59;;;;;;;4.85;2.67;;;;;;;20.36;54.23;102695.00;5072314;28;20052;-67
2022/08/09 08:25:34;;;;;;;3.88;2.63;;;;;;;20.36;54.33;102679.44;5066671;28;20161;-66
2022/08/09 08:28:15;;;;;;;4.97;2.65;;;;;;;20.40;54.66;102690.75;5067654;28;20113;-67
2022/08/09 08:30:52;;;;;;;6.90;2.60;;;;;;;20.42;54.43;102694.91;5065100;28;20590;-67
2022/08/09 08:33:22;;;;;;;6.00;2.28;;;;;;;20.44;54.60;102697.41;5069763;28;20044;-67
2022/08/09 08:35:52;;;;;;;6.43;3.42;;;;;;;20.44;54.87;102691.94;5064512;28;20139;-67
2022/08/09 08:38:27;;;;;;;3.55;2.00;;;;;;;20.44;54.62;102689.19;5067022;28;20049;-67
2022/08/09 08:40:56;;;;;;;9.73;2.72;;;;;;;20.45;54.53;102685.41;5071068;28;20060;-67
2022/08/09 08:43:26;;;;;;;4.63;2.95;;;;;;;20.45;54.72;102683.50;5070009;28;21076;-67
2022/08/09 08:45:59;;;;;;;4.72;2.50;;;;;;;20.46;54.67;102684.31;5068402;28;20037;-67
2022/08/09 08:48:47;;;;;;;6.40;2.53;;;;;;;20.48;54.71;102687.63;5067738;28;20064;-67
2022/08/09 08:51:21;;;;;;;5.25;2.78;;;;;;;20.49;54.73;102683.00;5071308;28;20041;-67
2022/08/09 08:53:51;;;;;;;4.05;2.50;;;;;;;20.51;54.86;102678.97;5067443;28;20048;-67
2022/08/09 08:56:34;;;;;;;4.68;2.60;;;;;;;20.54;54.87;102677.63;5066845;28;20082;-67
2022/08/09 08:59:05;;;;;;;2.97;2.10;;;;;;;20.55;54.78;102680.13;5066933;28;20045;-67
2022/08/09 09:01:48;;;;;;;2.97;1.95;;;;;;;20.59;54.67;102694.97;5062879;28;20070;-68
2022/08/09 09:04:28;;;;;;;3.45;1.77;;;;;;;20.61;54.89;102691.97;5069281;28;20072;-67
2022/08/09 09:07:08;;;;;;;3.05;1.52;;;;;;;20.65;54.84;102687.69;5067748;28;20147;-67
2022/08/09 09:09:37;;;;;;;3.50;2.00;;;;;;;20.67;54.82;102693.75;5075432;28;20044;-67
2022/08/09 09:12:29;;;;;;;6.63;2.22;;;;;;;20.68;54.33;102698.97;5066167;28;20045;-67
2022/08/09 09:15:04;;;;;;;4.68;1.95;;;;;;;20.72;54.49;102708.31;5068508;28;20107;-67
2022/08/09 09:17:34;;;;;;;2.83;1.90;;;;;;;20.73;54.34;102710.00;5058154;28;20406;-67
2022/08/09 09:20:19;;;;;;;4.93;2.05;;;;;;;20.67;54.24;102702.78;5064468;28;20051;-67
2022/08/09 09:22:54;;;;;;;2.97;2.00;;;;;;;20.76;54.35;102717.69;5067520;28;20059;-70
2022/08/09 09:25:34;;;;;;;3.05;1.83;;;;;;;20.78;54.18;102712.81;5069517;28;20257;-67
2022/08/09 09:28:21;;;;;;;2.88;1.88;;;;;;;20.81;54.18;102706.00;5061635;28;20055;-66
2022/08/09 09:31:14;;;;;;;9.27;2.13;;;;;;;20.84;54.03;102702.78;5068980;28;20227;-67
2022/08/09 09:34:12;;;;;;;2.67;1.50;;;;;;;20.89;54.30;102697.41;5063030;28;20049;-65
2022/08/09 09:36:41;;;;;;;4.53;1.52;;;;;;;20.94;54.19;102702.97;5064772;28;20124;-67
2022/08/09 09:39:22;;;;;;;4.00;1.40;;;;;;;20.96;54.11;102694.50;5070744;28;20055;-64
2022/08/09 09:42:23;;;;;;;4.07;1.98;;;;;;;21.00;53.98;102701.16;5063257;28;20055;-69
2022/08/09 09:44:57;;;;;;;3.95;1.73;;;;;;;21.03;53.83;102701.47;5061105;28;20075;-71
2022/08/09 09:47:28;;;;;;;5.47;2.15;;;;;;;21.06;53.84;102697.44;5067488;28;20072;-66
2022/08/09 09:49:58;;;;;;;3.97;1.98;;;;;;;21.09;53.79;102696.94;5068828;28;20084;-66
2022/08/09 09:52:50;;;;;;;4.15;2.20;;;;;;;21.14;53.97;102691.56;5063407;28;20075;-68
2022/08/09 09:55:21;;;;;;;4.78;1.98;;;;;;;21.19;53.65;102699.00;5068360;28;20044;-67
2022/08/09 09:58:01;;;;;;;2.50;1.48;;;;;;;21.18;53.91;102689.97;5063288;28;20068;-68
2022/08/09 10:00:47;;;;;;;7.30;2.03;;;;;;;21.23;53.62;102689.25;5062900;28;20080;-68
2022/08/09 10:03:40;;;;;;;7.30;2.05;;;;;;;21.25;53.40;102692.59;5061909;28;20147;-68
2022/08/09 10:06:09;;;;;;;6.43;1.70;;;;;;;21.31;53.50;102688.84;5062099;28;20128;-67
2022/08/09 10:08:39;;;;;;;4.43;1.70;;;;;;;21.34;53.39;102696.56;5067571;28;20075;-68
2022/08/09 10:11:26;;;;;;;4.05;1.70;;;;;;;21.36;53.54;102695.22;5068997;28;20045;-69
2022/08/09 10:14:25;;;;;;;4.18;1.88;;;;;;;21.39;52.95;102702.13;5062287;28;20120;-68
2022/08/09 10:17:08;;;;;;;3.92;1.60;;;;;;;21.42;53.00;102694.25;5060972;28;20526;-68
2022/08/09 10:19:58;;;;;;;3.25;1.27;;;;;;;21.46;52.95;102691.84;5060610;28;20100;-67
2022/08/09 10:22:31;;;;;;;3.65;1.60;;;;;;;21.47;52.41;102695.41;5068379;28;20379;-67
2022/08/09 10:25:01;;;;;;;3.90;1.73;;;;;;;21.50;52.30;102697.63;5070096;28;20045;-68
2022/08/09 10:27:38;;;;;;;3.50;1.50;;;;;;;21.51;51.66;102697.38;5061580;28;20045;-68
2022/08/09 10:30:24;;;;;;;2.92;1.33;;;;;;;21.53;51.44;102688.94;5071585;28;20044;-68
2022/08/09 10:33:12;;;;;;;3.55;1.70;;;;;;;21.55;51.56;102693.06;5068926;28;20112;-68
2022/08/09 10:36:02;;;;;;;4.78;1.35;;;;;;;21.59;51.52;102682.44;5068132;28;20051;-68
2022/08/09 10:38:31;;;;;;;3.05;1.42;;;;;;;21.63;51.80;102678.13;5063801;28;20067;-68
2022/08/09 10:41:19;;;;;;;2.72;1.50;;;;;;;21.69;51.57;102683.44;5068685;28;20045;-68
2022/08/09 10:43:49;;;;;;;4.40;1.95;;;;;;;21.73;51.32;102678.28;5066614;28;20067;-69
2022/08/09 10:47:00;;;;;;;7.10;2.67;;;;;;;21.80;51.45;102673.44;5068836;28;20090;-69
2022/08/09 10:49:51;;;;;;;11.27;3.53;;;;;;;21.88;51.77;102678.50;5065294;28;20057;-69
2022/08/09 10:52:39;;;;;;;7.95;2.72;;;;;;;21.93;51.86;102673.09;5067453;28;20059;-69
2022/08/09 10:55:24;;;;;;;3.97;1.88;;;;;;;22.01;51.55;102672.63;5065370;28;20052;-70
2022/08/09 10:57:54;;;;;;;3.05;1.30;;;;;;;22.05;50.74;102667.50;5071960;28;20059;-70
2022/08/09 11:00:33;;;;;;;5.32;2.17;;;;;;;22.10;51.00;102666.75;5072162;28;20064;-69
2022/08/09 11:03:03;;;;;;;5.00;2.05;;;;;;;22.20;50.19;102661.41;5060226;28;20112;-71
2022/08/09 11:06:23;;;;;;;5.38;2.40;;;;;;;22.31;50.84;102666.75;5064371;28;20045;-69
2022/08/09 11:08:52;;;;;;;4.80;2.25;;;;;;;22.37;51.28;102662.16;5063210;28;20127;-69
2022/08/09 11:11:22;;;;;;;3.65;1.55;;;;;;;22.44;51.04;102657.28;5074273;28;20139;-70
2022/08/09 11:14:20;;;;;;;4.32;1.63;;;;;;;22.50;50.33;102664.50;5072332;28;20049;-70
2022/08/09 11:16:55;;;;;;;3.88;1.25;;;;;;;22.52;49.54;102665.06;5069638;28;20056;-69
2022/08/09 11:19:51;;;;;;;5.63;2.08;;;;;;;22.55;50.39;102661.78;5067452;28;20041;-69
2022/08/09 11:23:01;;;;;;;3.60;1.90;;;;;;;22.63;51.12;102669.53;5067314;28;20048;-70
2022/08/09 11:25:44;;;;;;;4.63;1.42;;;;;;;22.68;49.46;102658.63;5065419;28;20040;-70
2022/08/09 11:28:35;;;;;;;2.75;1.27;;;;;;;22.72;49.56;102656.19;5069762;28;20108;-70
2022/08/09 11:31:48;;;;;;;7.07;1.55;;;;;;;22.77;48.92;102656.22;5066239;28;20108;-70
2022/08/09 11:34:31;;;;;;;3.08;1.50;;;;;;;22.80;48.95;102654.91;5064152;28;20123;-71
2022/08/09 11:37:03;;;;;;;2.25;1.13;;;;;;;22.87;47.72;102650.88;5066468;28;20080;-67
2022/08/09 11:40:01;;;;;;;4.72;1.55;;;;;;;22.94;48.70;102648.75;5071330;28;20509;-67
2022/08/09 11:42:46;;;;;;;1.77;1.10;;;;;;;23.02;49.18;102661.16;5073643;28;20048;-67
2022/08/09 11:45:24;;;;;;;3.60;1.20;;;;;;;23.06;49.20;102651.31;5067475;28;20668;-68
2022/08/09 11:48:19;;;;;;;2.75;1.25;;;;;;;23.11;49.08;102643.13;5071398;28;20052;-67
2022/08/09 11:51:02;;;;;;;4.90;1.25;;;;;;;23.14;48.49;102630.81;5048687;28;20451;-67
2022/08/09 11:54:14;;;;;;;3.60;1.10;;;;;;;23.21;48.77;102643.19;5059321;28;20140;-67
2022/08/09 11:57:30;;;;;;;5.50;1.27;;;;;;;23.24;47.84;102631.72;5058024;28;20083;-67
2022/08/09 12:00:19;;;;;;;1.48;1.00;;;;;;;23.27;47.21;102631.19;5066108;28;20144;-67
2022/08/09 12:02:54;;;;;;;2.92;0.93;;;;;;;23.30;47.90;102635.31;5064121;28;20484;-67
2022/08/09 12:05:30;;;;;;;1.67;1.10;;;;;;;23.34;46.88;102633.69;5054680;28;20050;-67
2022/08/09 12:08:07;;;;;;;1.65;1.08;;;;;;;23.34;46.93;102623.53;5060783;28;20049;-68
2022/08/09 12:10:43;;;;;;;3.92;1.00;;;;;;;23.34;46.73;102628.22;5063658;28;20053;-67
2022/08/09 12:13:28;;;;;;;2.35;1.23;;;;;;;23.37;46.92;102619.44;5064817;28;20084;-67